Time;durP1;ratioP1;P1;durP2;ratioP2;P2;SDS_P1;SDS_P2;PMS_P1;PMS_P2;Temp;Humidity;BMP_temperature;BMP_pressure;BME280_temperature;BME280_humidity;BME280_pressure;Samples;Min_cycle;Max_cycle;Signal;HPM_P1;HPM_P2
2022/03/18 00:00:54;;;;;;;56.33;40.38;;;8.30;99.90;;;;;;1863509;76;21535;-76
2022/03/18 00:03:22;;;;;;;52.58;38.65;;;8.30;99.90;;;;;;1865498;77;21118;-76
2022/03/18 00:05:49;;;;;;;55.83;38.95;;;8.40;99.90;;;;;;1866144;76;21512;-75
2022/03/18 00:08:16;;;;;;;51.30;37.17;;;8.30;99.90;;;;;;1874189;76;21074;-76
2022/03/18 00:10:44;;;;;;;47.65;35.60;;;8.40;99.90;;;;;;1860247;76;21067;-77
2022/03/18 00:13:11;;;;;;;50.98;35.48;;;8.50;99.90;;;;;;1881720;76;21202;-76
2022/03/18 00:15:39;;;;;;;54.35;36.08;;;8.50;99.90;;;;;;1863757;76;21069;-76
2022/03/18 00:18:06;;;;;;;46.95;34.48;;;8.50;99.90;;;;;;1871305;76;21878;-76
2022/03/18 00:20:33;;;;;;;59.03;36.05;;;8.40;99.90;;;;;;1866879;76;21085;-76
2022/03/18 00:23:01;;;;;;;52.10;34.38;;;8.40;99.90;;;;;;1865533;77;21166;-76
2022/03/18 00:25:29;;;;;;;46.08;33.28;;;8.30;99.90;;;;;;1865277;76;21491;-75
2022/03/18 00:27:57;;;;;;;42.38;31.62;;;8.30;99.90;;;;;;1865456;77;21065;-76
2022/03/18 00:30:24;;;;;;;48.00;31.25;;;8.30;99.90;;;;;;1865244;77;21104;-75
2022/03/18 00:32:51;;;;;;;37.58;29.45;;;8.30;99.90;;;;;;1866292;76;21130;-75
2022/03/18 00:35:19;;;;;;;40.73;28.52;;;8.20;99.90;;;;;;1857655;77;21042;-75
2022/03/18 00:37:46;;;;;;;38.00;29.07;;;8.20;99.90;;;;;;1864741;77;21140;-74
2022/03/18 00:40:14;;;;;;;37.83;29.72;;;8.30;99.90;;;;;;1864638;76;21111;-74
2022/03/18 00:42:41;;;;;;;34.50;26.25;;;8.30;99.90;;;;;;1864814;77;21057;-75
2022/03/18 00:45:09;;;;;;;38.65;26.57;;;8.30;99.90;;;;;;1864684;77;21057;-76
2022/03/18 00:52:56;;;;;;;38.33;26.57;;;8.30;99.90;;;;;;1829574;77;21537;-77
2022/03/18 00:55:24;;;;;;;36.95;25.68;;;8.30;99.90;;;;;;1864870;77;21057;-77
2022/03/18 00:57:51;;;;;;;32.75;25.32;;;8.30;99.90;;;;;;1866330;76;21055;-77
2022/03/18 01:00:18;;;;;;;35.00;26.70;;;8.20;99.90;;;;;;1864837;77;21182;-77
2022/03/18 01:02:46;;;;;;;33.45;25.37;;;8.10;99.90;;;;;;1864858;77;21123;-77
2022/03/18 01:05:13;;;;;;;35.45;25.97;;;8.10;99.90;;;;;;1864779;77;21053;-76
2022/03/18 01:07:40;;;;;;;37.23;25.85;;;8.10;99.90;;;;;;1864679;77;21069;-78
2022/03/18 01:10:08;;;;;;;35.05;25.43;;;8.10;99.90;;;;;;1864660;77;21061;-76
2022/03/18 01:12:35;;;;;;;33.90;23.92;;;8.10;99.90;;;;;;1864716;77;21045;-75
2022/03/18 01:15:02;;;;;;;28.52;23.42;;;8.10;99.90;;;;;;1864663;77;21057;-76
2022/03/18 01:17:30;;;;;;;29.72;22.77;;;8.00;99.90;;;;;;1864665;77;21176;-75
2022/03/18 01:19:57;;;;;;;33.13;23.38;;;8.10;99.90;;;;;;1864561;77;21049;-76
2022/03/18 01:22:25;;;;;;;32.08;22.60;;;8.00;99.90;;;;;;1864630;77;21220;-75
2022/03/18 01:24:52;;;;;;;31.48;24.05;;;8.10;99.90;;;;;;1864743;77;21025;-75
2022/03/18 01:27:19;;;;;;;28.40;22.70;;;8.10;99.90;;;;;;1864629;77;21130;-75
2022/03/18 01:29:47;;;;;;;34.18;23.57;;;8.00;99.90;;;;;;1864679;77;21161;-76
2022/03/18 01:32:14;;;;;;;31.55;23.02;;;8.10;99.90;;;;;;1864807;77;21477;-75
2022/03/18 01:34:41;;;;;;;29.20;22.70;;;8.00;99.90;;;;;;1864669;77;21049;-76
2022/03/18 01:37:09;;;;;;;34.75;23.50;;;8.00;99.90;;;;;;1864568;77;21449;-75
2022/03/18 01:39:36;;;;;;;29.20;21.60;;;8.00;99.90;;;;;;1864724;77;21147;-75
2022/03/18 01:42:04;;;;;;;30.85;22.50;;;8.00;99.90;;;;;;1864839;77;21053;-75
2022/03/18 01:44:34;;;;;;;27.48;21.80;;;8.00;99.90;;;;;;1864794;77;21143;-75
2022/03/18 01:47:02;;;;;;;29.07;22.50;;;8.00;99.90;;;;;;1861453;77;21022;-76
2022/03/18 01:49:29;;;;;;;31.15;20.95;;;8.10;99.90;;;;;;1864869;77;21136;-74
2022/03/18 01:51:56;;;;;;;26.90;20.95;;;8.00;99.90;;;;;;1864839;77;21057;-74
2022/03/18 01:57:09;;;;;;;31.55;20.75;;;8.00;99.90;;;;;;1864891;77;21191;-75
2022/03/18 01:59:36;;;;;;;26.15;20.12;;;8.10;99.90;;;;;;1864809;77;21540;-76
2022/03/18 02:02:04;;;;;;;32.63;20.88;;;8.10;99.90;;;;;;1864835;77;21054;-75
2022/03/18 02:04:32;;;;;;;23.20;18.82;;;8.00;99.90;;;;;;1864829;77;21124;-76
2022/03/18 02:07:00;;;;;;;27.55;19.57;;;8.10;99.90;;;;;;1864831;77;21077;-76
2022/03/18 02:09:28;;;;;;;24.30;20.15;;;8.00;99.90;;;;;;1833990;77;21107;-76
2022/03/18 02:11:55;;;;;;;30.05;20.50;;;8.00;99.90;;;;;;1864878;77;21419;-76
2022/03/18 02:14:38;;;;;;;27.77;18.90;;;8.00;99.90;;;;;;1864688;77;21111;-75
2022/03/18 02:17:07;;;;;;;26.73;19.62;;;8.00;99.90;;;;;;1864738;77;21077;-76
2022/03/18 02:19:35;;;;;;;28.62;19.42;;;8.00;99.90;;;;;;1864824;77;21061;-76
2022/03/18 02:22:08;;;;;;;30.35;20.57;;;8.00;99.90;;;;;;1864829;77;21544;-75
2022/03/18 02:24:35;;;;;;;32.75;20.40;;;7.90;99.90;;;;;;1852596;77;21190;-76
2022/03/18 02:27:03;;;;;;;24.60;20.35;;;8.00;99.90;;;;;;1844298;76;21072;-75
2022/03/18 02:29:30;;;;;;;24.67;18.87;;;8.10;99.90;;;;;;1862268;77;21088;-75
2022/03/18 02:31:57;;;;;;;26.70;19.82;;;8.00;99.90;;;;;;1864893;77;21056;-74
2022/03/18 02:34:25;;;;;;;26.02;19.10;;;8.00;99.90;;;;;;1864735;75;21065;-77
2022/03/18 02:36:52;;;;;;;33.48;19.77;;;8.00;99.90;;;;;;1835297;76;21484;-78
2022/03/18 02:39:19;;;;;;;26.62;19.95;;;8.00;99.90;;;;;;1867740;76;21148;-75
2022/03/18 02:41:47;;;;;;;26.25;20.35;;;8.00;99.90;;;;;;1832823;76;21185;-77
2022/03/18 02:44:14;;;;;;;22.45;18.87;;;7.90;99.90;;;;;;1866355;76;21139;-75
2022/03/18 02:46:42;;;;;;;31.50;19.70;;;7.90;99.90;;;;;;1883897;76;21078;-77
2022/03/18 02:49:09;;;;;;;24.60;18.50;;;7.90;99.90;;;;;;1873387;75;21623;-77
2022/03/18 02:51:37;;;;;;;23.87;18.30;;;7.90;99.90;;;;;;1864887;76;21246;-75
2022/03/18 02:54:06;;;;;;;27.93;19.32;;;7.90;99.90;;;;;;1840075;76;21085;-75
2022/03/18 02:56:33;;;;;;;29.92;21.00;;;8.00;99.90;;;;;;1832100;76;21069;-75
2022/03/18 02:59:01;;;;;;;24.25;19.80;;;7.90;99.90;;;;;;1846853;76;21079;-75
2022/03/18 03:01:30;;;;;;;31.37;19.12;;;7.80;99.90;;;;;;1839929;76;21199;-74
2022/03/18 03:03:58;;;;;;;27.80;19.50;;;7.90;99.90;;;;;;1866504;76;21146;-75
2022/03/18 03:09:12;;;;;;;24.12;19.35;;;8.00;99.90;;;;;;1882742;76;21055;-76
2022/03/18 03:11:39;;;;;;;31.97;19.45;;;8.00;99.90;;;;;;1860167;76;21082;-74
2022/03/18 03:14:06;;;;;;;27.85;19.02;;;8.00;99.90;;;;;;1864373;76;21486;-74
2022/03/18 03:16:34;;;;;;;29.25;19.42;;;8.00;99.90;;;;;;1862296;77;21020;-77
2022/03/18 03:19:02;;;;;;;24.27;19.48;;;8.00;99.90;;;;;;1857534;76;21139;-76
2022/03/18 03:21:30;;;;;;;27.75;19.30;;;8.00;99.90;;;;;;1855858;76;21201;-75
2022/03/18 03:23:57;;;;;;;27.52;19.65;;;8.10;99.90;;;;;;1858672;76;21143;-77
2022/03/18 03:26:25;;;;;;;26.65;19.37;;;8.00;99.90;;;;;;1865618;76;21108;-77
2022/03/18 03:28:52;;;;;;;26.90;19.77;;;7.90;99.90;;;;;;1862337;76;21079;-74
2022/03/18 03:31:19;;;;;;;32.13;21.25;;;7.90;99.90;;;;;;1869784;76;21206;-76
2022/03/18 03:33:47;;;;;;;32.25;20.40;;;7.90;99.90;;;;;;1866550;76;21069;-76
2022/03/18 03:36:14;;;;;;;27.48;21.45;;;7.80;99.90;;;;;;1856632;76;21156;-77
2022/03/18 03:38:42;;;;;;;30.08;20.88;;;7.80;99.90;;;;;;1862213;76;21476;-76
2022/03/18 03:41:09;;;;;;;26.65;20.55;;;7.80;99.90;;;;;;1862489;77;21082;-77
2022/03/18 03:43:38;;;;;;;25.70;20.20;;;7.90;99.90;;;;;;1860351;76;21065;-77
2022/03/18 03:46:05;;;;;;;30.32;20.48;;;7.90;99.90;;;;;;1862427;76;21082;-77
2022/03/18 03:48:33;;;;;;;28.98;21.20;;;7.70;99.90;;;;;;1861444;76;21089;-78
2022/03/18 03:51:01;;;;;;;30.60;21.65;;;7.70;99.90;;;;;;1868793;76;21038;-77
2022/03/18 03:53:28;;;;;;;30.23;20.90;;;7.80;99.90;;;;;;1860459;76;21214;-74
2022/03/18 03:55:55;;;;;;;29.07;20.57;;;7.80;99.90;;;;;;1860938;76;21079;-76
2022/03/18 03:58:23;;;;;;;26.42;19.75;;;7.90;99.90;;;;;;1864895;76;21077;-77
2022/03/18 04:00:50;;;;;;;26.50;19.65;;;7.80;99.90;;;;;;1863442;76;21176;-78
2022/03/18 04:03:17;;;;;;;29.55;21.55;;;7.70;99.90;;;;;;1859187;76;21081;-77
2022/03/18 04:05:45;;;;;;;27.25;19.82;;;7.80;99.90;;;;;;1875008;76;21152;-77
2022/03/18 04:08:12;;;;;;;32.58;21.27;;;7.90;99.90;;;;;;1862262;76;21112;-79
2022/03/18 04:10:42;;;;;;;31.55;21.12;;;7.80;99.90;;;;;;1862283;77;21433;-76
2022/03/18 04:13:08;;;;;;;29.52;20.57;;;7.80;99.90;;;;;;1860327;76;21412;-75
2022/03/18 04:15:36;;;;;;;31.52;20.10;;;7.70;99.90;;;;;;1860353;76;21194;-76
2022/03/18 04:18:03;;;;;;;35.08;21.33;;;7.80;99.90;;;;;;1873438;76;21190;-75
2022/03/18 04:20:33;;;;;;;27.07;21.30;;;7.80;99.90;;;;;;1862717;76;21144;-76
2022/03/18 04:23:00;;;;;;;32.00;19.27;;;7.80;99.90;;;;;;1861400;76;21106;-77
2022/03/18 04:25:27;;;;;;;29.30;20.90;;;7.90;99.90;;;;;;1860674;76;21491;-78
2022/03/18 04:27:55;;;;;;;26.12;20.08;;;7.90;99.90;;;;;;1862517;76;21564;-76
2022/03/18 04:30:22;;;;;;;27.42;20.80;;;7.80;99.90;;;;;;1862683;77;21094;-76
2022/03/18 04:32:49;;;;;;;28.77;20.82;;;7.70;99.90;;;;;;1862609;77;21074;-73
2022/03/18 04:35:17;;;;;;;29.95;21.40;;;7.80;99.90;;;;;;1858758;76;21056;-76
2022/03/18 04:37:44;;;;;;;31.17;20.43;;;7.70;99.90;;;;;;1865410;76;21083;-77
2022/03/18 04:40:12;;;;;;;25.37;19.12;;;7.80;99.90;;;;;;1864094;77;21043;-77
2022/03/18 04:42:41;;;;;;;27.75;20.90;;;7.90;99.90;;;;;;1863726;77;21086;-77
2022/03/18 04:45:09;;;;;;;31.07;20.77;;;7.90;99.90;;;;;;1863545;76;21218;-77
2022/03/18 04:47:36;;;;;;;31.33;20.60;;;7.90;99.90;;;;;;1864743;77;21043;-76
2022/03/18 04:50:04;;;;;;;33.18;22.15;;;7.80;99.90;;;;;;1858063;76;21150;-77
2022/03/18 04:52:31;;;;;;;30.10;20.57;;;7.70;99.90;;;;;;1866781;76;21428;-77
2022/03/18 04:54:59;;;;;;;31.40;21.68;;;7.70;99.90;;;;;;1860887;76;21051;-78
2022/03/18 04:57:26;;;;;;;31.87;21.02;;;7.80;99.90;;;;;;1861656;76;21193;-76
2022/03/18 04:59:54;;;;;;;29.60;20.20;;;7.80;99.90;;;;;;1865206;76;21478;-76
2022/03/18 05:02:21;;;;;;;31.07;20.60;;;7.80;99.90;;;;;;1872712;76;21075;-77
2022/03/18 05:04:49;;;;;;;31.93;21.57;;;7.70;99.90;;;;;;1859122;76;21045;-77
2022/03/18 05:07:35;;;;;;;31.30;21.20;;;7.90;99.90;;;;;;1862563;76;21113;-78
2022/03/18 05:10:03;;;;;;;32.38;20.75;;;7.90;99.90;;;;;;1849887;76;21157;-78
2022/03/18 05:12:31;;;;;;;28.55;20.75;;;7.90;99.90;;;;;;1852154;77;21192;-78
2022/03/18 05:14:59;;;;;;;30.77;21.15;;;7.90;99.90;;;;;;1852930;76;21113;-78
2022/03/18 05:17:26;;;;;;;32.30;21.12;;;7.80;99.90;;;;;;1853704;76;21087;-76
2022/03/18 05:19:54;;;;;;;33.33;20.92;;;7.80;99.90;;;;;;1853496;76;21461;-77
2022/03/18 05:22:21;;;;;;;27.85;21.23;;;7.90;99.90;;;;;;1857047;76;21076;-77
2022/03/18 05:24:48;;;;;;;31.97;21.20;;;7.90;99.90;;;;;;1853106;76;21120;-77
2022/03/18 05:27:15;;;;;;;28.60;20.45;;;7.90;99.90;;;;;;1851399;76;21137;-77
2022/03/18 05:29:44;;;;;;;28.80;20.70;;;7.90;99.90;;;;;;1851573;76;21163;-78
2022/03/18 05:32:11;;;;;;;30.55;21.42;;;7.80;99.90;;;;;;1858099;76;21080;-77
2022/03/18 05:34:39;;;;;;;27.37;20.88;;;7.70;99.90;;;;;;1851416;76;21112;-77
2022/03/18 05:37:06;;;;;;;31.20;21.90;;;7.70;99.90;;;;;;1856310;76;21080;-77
2022/03/18 05:39:35;;;;;;;30.77;20.02;;;7.70;99.90;;;;;;1855278;76;21066;-77
2022/03/18 05:42:02;;;;;;;32.55;20.90;;;7.70;99.90;;;;;;1845290;76;21129;-78
2022/03/18 05:44:30;;;;;;;36.08;21.20;;;7.70;99.90;;;;;;1877405;76;21566;-77
2022/03/18 05:46:57;;;;;;;28.00;20.48;;;7.60;99.90;;;;;;1871117;76;21479;-77
2022/03/18 05:49:24;;;;;;;29.18;22.70;;;7.70;99.90;;;;;;1874196;76;21115;-78
2022/03/18 05:51:52;;;;;;;32.30;21.75;;;7.70;99.90;;;;;;1872458;76;21448;-78
2022/03/18 05:54:19;;;;;;;36.15;22.77;;;7.80;99.90;;;;;;1871085;76;21184;-78
2022/03/18 05:56:55;;;;;;;31.15;21.62;;;7.70;99.90;;;;;;1874329;76;21164;-79
2022/03/18 05:59:24;;;;;;;33.80;22.75;;;7.70;99.90;;;;;;1867917;76;21070;-78
2022/03/18 06:01:52;;;;;;;33.95;22.10;;;7.70;99.90;;;;;;1873485;76;21232;-77
2022/03/18 06:04:19;;;;;;;34.92;23.60;;;7.70;99.90;;;;;;1873520;76;21087;-76
2022/03/18 06:06:47;;;;;;;32.73;21.10;;;7.80;99.90;;;;;;1878416;76;21076;-77
2022/03/18 06:12:01;;;;;;;33.65;21.25;;;7.70;99.90;;;;;;1874282;76;21142;-77
2022/03/18 06:14:29;;;;;;;29.35;20.80;;;7.80;99.90;;;;;;1881591;76;21595;-77
2022/03/18 06:16:59;;;;;;;29.30;21.27;;;7.80;99.90;;;;;;1877434;76;21091;-75
2022/03/18 06:19:30;;;;;;;36.03;22.02;;;7.90;99.90;;;;;;1879077;76;21211;-75
2022/03/18 06:21:58;;;;;;;31.12;21.62;;;7.90;99.90;;;;;;1873695;76;21149;-76
2022/03/18 06:24:25;;;;;;;34.92;21.42;;;7.90;99.90;;;;;;1873873;76;21085;-75
2022/03/18 06:26:53;;;;;;;28.87;21.17;;;7.90;99.90;;;;;;1870988;76;21057;-75
2022/03/18 06:29:21;;;;;;;34.83;22.32;;;8.00;99.90;;;;;;1877089;76;21161;-79
2022/03/18 06:31:48;;;;;;;35.40;22.75;;;8.00;99.90;;;;;;1876857;76;21118;-76
2022/03/18 06:34:16;;;;;;;30.62;21.07;;;7.90;99.90;;;;;;1874802;76;21122;-77
2022/03/18 06:36:43;;;;;;;33.15;21.07;;;8.00;99.90;;;;;;1872879;76;21162;-78
2022/03/18 06:39:10;;;;;;;31.45;22.70;;;8.00;99.90;;;;;;1874621;76;21040;-78
2022/03/18 06:41:38;;;;;;;35.98;23.07;;;7.90;99.90;;;;;;1874517;76;21110;-79
2022/03/18 06:44:09;;;;;;;29.82;21.55;;;8.00;99.90;;;;;;1874589;76;21044;-79
2022/03/18 06:46:37;;;;;;;28.87;22.02;;;8.10;99.90;;;;;;1872551;76;21055;-80
2022/03/18 06:49:04;;;;;;;28.92;21.00;;;8.10;99.90;;;;;;1872905;76;21060;-79
2022/03/18 06:51:32;;;;;;;34.20;21.82;;;8.10;99.90;;;;;;1874777;76;21032;-80
2022/03/18 06:53:59;;;;;;;31.50;21.20;;;8.20;99.90;;;;;;1872822;76;21107;-79
2022/03/18 06:56:31;;;;;;;30.45;21.73;;;8.30;99.90;;;;;;1874709;76;21049;-79
2022/03/18 06:58:56;;;;;;;38.53;21.85;;;8.40;99.90;;;;;;1870865;76;21433;-80
2022/03/18 07:01:23;;;;;;;31.62;22.82;;;8.50;99.90;;;;;;1869768;76;21082;-80
2022/03/18 07:03:52;;;;;;;28.32;22.30;;;8.40;99.90;;;;;;1872875;76;21064;-78
2022/03/18 07:06:20;;;;;;;36.73;22.93;;;8.40;99.90;;;;;;1839973;76;21057;-78
2022/03/18 07:08:47;;;;;;;34.65;23.65;;;8.30;99.90;;;;;;1879283;76;21491;-78
2022/03/18 07:11:14;;;;;;;34.98;23.73;;;8.30;99.90;;;;;;1878434;76;21157;-77
2022/03/18 07:13:43;;;;;;;39.98;22.82;;;8.40;99.90;;;;;;1872648;76;21141;-78
2022/03/18 07:18:55;;;;;;;33.63;23.47;;;8.40;99.90;;;;;;1868200;76;21142;-77
2022/03/18 07:21:23;;;;;;;32.30;23.77;;;8.50;99.90;;;;;;1874865;75;21110;-78
2022/03/18 07:23:50;;;;;;;32.03;23.67;;;8.50;99.90;;;;;;1871181;76;21035;-78
2022/03/18 07:26:17;;;;;;;36.40;25.43;;;8.70;99.90;;;;;;1888718;76;21044;-80
2022/03/18 07:28:44;;;;;;;32.28;24.07;;;8.70;99.90;;;;;;1874362;76;21094;-78
2022/03/18 07:31:12;;;;;;;40.58;25.95;;;8.50;99.90;;;;;;1871296;76;21078;-78
2022/03/18 07:33:39;;;;;;;39.33;25.15;;;8.60;99.90;;;;;;1871500;75;21125;-76
2022/03/18 07:36:08;;;;;;;34.43;24.55;;;8.60;99.90;;;;;;1877203;76;21457;-78
2022/03/18 07:38:35;;;;;;;37.60;25.00;;;8.70;99.90;;;;;;1879015;76;21057;-78
2022/03/18 07:41:02;;;;;;;38.20;25.70;;;8.80;99.90;;;;;;1876625;76;21071;-78
2022/03/18 07:43:30;;;;;;;34.53;25.32;;;8.90;99.90;;;;;;1882126;76;21157;-79
2022/03/18 07:45:57;;;;;;;36.03;26.82;;;8.90;99.90;;;;;;1886940;76;21048;-78
2022/03/18 07:48:28;;;;;;;37.30;27.70;;;8.60;99.90;;;;;;1874505;76;21133;-76
2022/03/18 07:50:54;;;;;;;39.00;27.35;;;8.80;99.90;;;;;;1872875;76;21466;-75
2022/03/18 07:53:21;;;;;;;43.15;28.70;;;8.90;99.90;;;;;;1869546;76;21090;-76
2022/03/18 07:55:48;;;;;;;36.80;27.20;;;8.90;99.90;;;;;;1873675;76;21139;-75
2022/03/18 07:58:16;;;;;;;37.98;25.95;;;8.80;99.90;;;;;;1871228;76;21071;-76
2022/03/18 08:00:43;;;;;;;37.45;26.97;;;8.90;99.90;;;;;;1874729;76;21526;-76
2022/03/18 08:03:11;;;;;;;42.38;28.75;;;9.00;99.90;;;;;;1876920;76;21576;-76
2022/03/18 08:05:38;;;;;;;43.68;28.07;;;9.00;99.90;;;;;;1878847;76;21079;-82
2022/03/18 08:08:05;;;;;;;43.70;27.55;;;9.10;99.90;;;;;;1841300;76;21138;-83
2022/03/18 08:10:33;;;;;;;42.88;26.93;;;9.00;99.90;;;;;;1874224;76;21460;-82
2022/03/18 08:13:02;;;;;;;36.40;26.37;;;9.30;99.90;;;;;;1870583;76;21095;-82
2022/03/18 08:15:30;;;;;;;38.42;28.15;;;9.40;99.90;;;;;;1874578;76;21087;-82
2022/03/18 08:17:58;;;;;;;44.27;28.98;;;9.60;99.90;;;;;;1872820;76;21051;-84
2022/03/18 08:20:25;;;;;;;39.63;26.70;;;9.60;99.90;;;;;;1880328;76;21175;-83
2022/03/18 08:22:52;;;;;;;39.90;27.65;;;9.70;99.90;;;;;;1874316;76;21076;-84
2022/03/18 08:25:20;;;;;;;42.58;28.57;;;9.80;99.90;;;;;;1871154;76;21084;-84
2022/03/18 08:27:49;;;;;;;42.40;28.25;;;9.70;99.90;;;;;;1871687;76;21121;-83
2022/03/18 08:30:16;;;;;;;44.93;29.18;;;9.80;99.90;;;;;;1874936;76;21087;-83
2022/03/18 08:32:44;;;;;;;36.05;28.12;;;9.80;99.90;;;;;;1876472;76;21060;-83
2022/03/18 08:35:12;;;;;;;41.15;28.02;;;9.70;99.90;;;;;;1875251;76;21062;-82
2022/03/18 08:37:58;;;;;;;43.10;29.07;;;9.50;99.90;;;;;;1869884;76;21079;-82
2022/03/18 08:40:30;;;;;;;40.45;28.47;;;9.60;99.90;;;;;;1871884;76;21138;-84
2022/03/18 08:42:57;;;;;;;42.10;28.00;;;9.50;99.90;;;;;;1874823;76;21451;-82
2022/03/18 08:45:25;;;;;;;39.33;27.42;;;9.60;99.90;;;;;;1875596;76;21083;-83
2022/03/18 08:47:53;;;;;;;39.30;28.10;;;9.70;99.90;;;;;;1873083;76;21087;-78
2022/03/18 08:50:21;;;;;;;41.05;28.73;;;9.60;99.90;;;;;;1877529;76;21075;-84
2022/03/18 08:52:50;;;;;;;41.48;27.17;;;9.60;99.90;;;;;;1873905;76;21536;-77
2022/03/18 08:55:17;;;;;;;39.65;27.40;;;9.80;99.90;;;;;;1867600;76;21047;-82
2022/03/18 08:57:46;;;;;;;37.63;27.95;;;9.90;99.90;;;;;;1872721;76;21072;-85
2022/03/18 09:00:17;;;;;;;36.85;26.25;;;10.00;99.90;;;;;;1874450;76;21064;-85
2022/03/18 09:02:47;;;;;;;37.55;26.17;;;10.20;99.90;;;;;;1873864;76;21096;-84
2022/03/18 09:05:14;;;;;;;35.03;26.90;;;10.10;99.90;;;;;;1875118;76;21541;-86
2022/03/18 09:07:41;;;;;;;33.85;26.02;;;10.20;99.90;;;;;;1875356;76;21021;-85
2022/03/18 09:10:11;;;;;;;36.88;26.85;;;10.30;99.90;;;;;;1874757;76;21129;-81
2022/03/18 09:12:48;;;;;;;40.95;27.93;;;10.60;99.90;;;;;;1870990;76;21212;-81
2022/03/18 09:15:17;;;;;;;39.40;24.57;;;10.70;99.90;;;;;;1876320;75;21478;-79
2022/03/18 09:17:44;;;;;;;40.95;26.02;;;10.90;99.90;;;;;;1883369;76;21141;-80
2022/03/18 09:20:11;;;;;;;38.28;24.80;;;10.90;99.90;;;;;;1874634;76;21061;-81
2022/03/18 09:22:39;;;;;;;35.80;25.68;;;10.70;99.90;;;;;;1874414;76;21056;-81
2022/03/18 09:25:06;;;;;;;37.17;26.10;;;10.80;99.90;;;;;;1874331;76;21145;-83
2022/03/18 09:27:34;;;;;;;37.78;24.63;;;10.60;99.90;;;;;;1874378;76;21047;-82
2022/03/18 09:30:01;;;;;;;36.33;24.70;;;10.50;99.90;;;;;;1874402;76;21143;-84
2022/03/18 09:32:30;;;;;;;44.08;24.45;;;10.60;99.90;;;;;;1874590;76;21064;-79
2022/03/18 09:34:58;;;;;;;32.48;23.92;;;10.60;99.90;;;;;;1879572;76;21482;-77
2022/03/18 09:37:30;;;;;;;35.60;24.43;;;10.90;99.90;;;;;;1883351;75;21170;-76
2022/03/18 09:39:57;;;;;;;43.63;22.90;;;11.10;99.90;;;;;;1873104;76;21185;-79
2022/03/18 09:42:24;;;;;;;33.28;22.05;;;11.30;99.90;;;;;;1873839;76;21075;-77
2022/03/18 09:44:52;;;;;;;33.58;23.35;;;11.10;99.90;;;;;;1877153;75;21144;-77
2022/03/18 09:47:21;;;;;;;32.65;22.37;;;11.10;99.90;;;;;;1874332;76;21048;-77
2022/03/18 09:49:48;;;;;;;29.45;21.93;;;11.00;99.90;;;;;;1852488;76;21047;-79
2022/03/18 09:52:15;;;;;;;28.50;21.05;;;11.10;99.90;;;;;;1874149;76;21146;-78
2022/03/18 09:54:43;;;;;;;29.63;21.45;;;11.30;99.90;;;;;;1873131;76;21094;-76
2022/03/18 09:57:11;;;;;;;28.52;20.50;;;11.50;99.90;;;;;;1869758;76;21149;-78
2022/03/18 09:59:38;;;;;;;27.13;20.27;;;11.40;99.90;;;;;;1879049;76;21083;-79
2022/03/18 10:02:27;;;;;;;33.48;21.73;;;11.70;99.90;;;;;;1869154;76;21077;-79
2022/03/18 10:05:00;;;;;;;31.00;20.90;;;11.70;99.90;;;;;;1874364;76;21060;-80
2022/03/18 10:07:27;;;;;;;29.77;21.05;;;11.90;99.90;;;;;;1844635;76;21068;-77
2022/03/18 10:10:15;;;;;;;33.75;20.77;;;11.30;99.90;;;;;;1869666;76;21049;-77
2022/03/18 10:12:41;;;;;;;28.92;20.72;;;11.70;99.90;;;;;;1890151;76;21106;-77
2022/03/18 10:15:20;;;;;;;28.77;19.92;;;11.90;99.90;;;;;;1873177;76;21093;-76
2022/03/18 10:17:48;;;;;;;28.15;18.87;;;12.20;99.90;;;;;;1887103;76;21023;-77
2022/03/18 10:20:36;;;;;;;34.43;20.43;;;12.10;99.90;;;;;;1872050;76;21084;-77
2022/03/18 10:23:22;;;;;;;30.57;20.15;;;12.00;99.90;;;;;;1876629;76;21088;-77
2022/03/18 10:25:53;;;;;;;30.05;19.80;;;11.90;99.90;;;;;;1873695;76;21064;-78
2022/03/18 10:28:41;;;;;;;27.45;19.87;;;11.80;99.90;;;;;;1874631;76;21126;-78
2022/03/18 10:31:16;;;;;;;41.37;21.77;;;12.00;99.90;;;;;;1870769;76;21154;-77
2022/03/18 10:37:05;;;;;;;30.50;19.85;;;11.80;99.90;;;;;;1808944;79;21171;-77
2022/03/18 10:39:48;;;;;;;32.83;20.23;;;11.70;99.90;;;;;;1813828;78;21236;-79
2022/03/18 10:42:16;;;;;;;24.85;19.65;;;12.10;99.90;;;;;;1852232;76;21508;-76
2022/03/18 10:44:51;;;;;;;31.85;19.73;;;12.20;99.90;;;;;;1852242;77;21071;-77
2022/03/18 10:47:39;;;;;;;26.65;19.98;;;12.20;99.90;;;;;;1842058;77;21069;-79
2022/03/18 10:50:17;;;;;;;28.05;19.65;;;12.50;99.90;;;;;;1845504;77;21485;-80
2022/03/18 10:53:00;;;;;;;29.65;19.90;;;12.70;99.90;;;;;;1852380;76;21067;-79
2022/03/18 10:55:30;;;;;;;29.75;19.80;;;12.80;99.90;;;;;;1845803;76;21075;-78
2022/03/18 10:58:00;;;;;;;32.10;20.40;;;12.60;99.90;;;;;;1851030;76;21059;-80
2022/03/18 11:00:32;;;;;;;38.05;20.40;;;12.40;99.90;;;;;;1851289;77;21077;-77
2022/03/18 11:03:01;;;;;;;26.55;20.02;;;12.20;99.90;;;;;;1854891;76;21159;-76
2022/03/18 11:05:36;;;;;;;30.90;20.37;;;12.10;99.90;;;;;;1811406;78;21132;-75
2022/03/18 11:08:05;;;;;;;26.37;19.23;;;12.50;99.90;;;;;;1852766;77;21478;-76
2022/03/18 11:13:22;;;;;;;33.63;20.43;;;12.70;99.90;;;;;;1844080;76;21091;-77
2022/03/18 11:15:49;;;;;;;31.77;19.87;;;13.00;99.90;;;;;;1853780;76;21481;-77
2022/03/18 11:18:17;;;;;;;27.27;19.50;;;13.10;99.90;;;;;;1813709;77;21479;-78
2022/03/18 11:20:47;;;;;;;27.17;18.80;;;13.50;99.90;;;;;;1847304;76;21086;-78
2022/03/18 11:23:22;;;;;;;;;;;13.80;99.90;;;;;;1844229;76;21090;-76
2022/03/18 11:25:51;;;;;;;26.87;19.62;;;13.80;99.90;;;;;;1848612;77;20177;-75
2022/03/18 11:28:20;;;;;;;29.82;19.90;;;13.40;99.90;;;;;;1840757;76;21559;-75
2022/03/18 11:31:05;;;;;;;27.73;20.05;;;13.10;99.90;;;;;;1851795;77;21124;-78
2022/03/18 11:33:33;;;;;;;27.70;20.43;;;12.90;99.90;;;;;;1841762;76;21196;-89
2022/03/18 11:36:12;;;;;;;26.68;19.55;;;12.80;99.90;;;;;;1841013;76;21064;-83
2022/03/18 11:38:57;;;;;;;30.02;20.85;;;12.50;99.90;;;;;;1857595;77;21086;-85
2022/03/18 11:41:26;;;;;;;31.07;19.82;;;12.70;99.90;;;;;;1850792;76;21067;-89
2022/03/18 11:43:55;;;;;;;27.02;19.75;;;13.00;99.90;;;;;;1854661;77;21085;-87
2022/03/18 11:46:27;;;;;;;26.77;20.05;;;13.00;99.90;;;;;;1861188;77;21106;-84
2022/03/18 11:49:01;;;;;;;26.15;19.45;;;13.30;99.90;;;;;;1810937;76;21144;-82
2022/03/18 11:51:42;;;;;;;26.42;18.42;;;13.60;99.90;;;;;;1855536;77;21089;-83
2022/03/18 11:54:16;;;;;;;25.02;19.00;;;13.50;99.90;;;;;;1848427;76;21511;-83
2022/03/18 11:57:09;;;;;;;28.50;19.20;;;13.90;99.90;;;;;;1842612;76;21165;-84
2022/03/18 11:59:39;;;;;;;25.60;18.60;;;14.00;99.90;;;;;;1854414;76;21106;-86
2022/03/18 12:02:38;;;;;;;26.90;19.62;;;14.20;99.90;;;;;;1835723;76;21172;-84
2022/03/18 12:05:06;;;;;;;29.57;19.62;;;13.70;99.90;;;;;;1846426;77;21078;-82
2022/03/18 12:07:51;;;;;;;31.73;18.65;;;13.60;99.90;;;;;;1853089;77;21099;-79
2022/03/18 12:10:43;;;;;;;27.98;20.25;;;13.90;99.90;;;;;;1850734;77;21155;-80
2022/03/18 12:13:13;;;;;;;30.77;19.25;;;14.50;99.90;;;;;;1838449;76;21478;-81
2022/03/18 12:15:41;;;;;;;31.45;20.68;;;14.40;99.90;;;;;;1848373;76;21580;-83
2022/03/18 12:18:14;;;;;;;27.10;19.60;;;14.50;99.90;;;;;;1849353;76;21086;-83
2022/03/18 12:20:43;;;;;;;26.45;19.62;;;14.20;99.90;;;;;;1832457;76;21090;-82
2022/03/18 12:23:11;;;;;;;27.90;20.75;;;14.50;99.90;;;;;;1798058;79;21184;-84
2022/03/18 12:25:40;;;;;;;31.90;20.40;;;14.40;99.90;;;;;;1827812;76;21093;-84
2022/03/18 12:28:09;;;;;;;24.37;18.90;;;14.80;99.90;;;;;;1849808;77;21160;-82
2022/03/18 12:30:37;;;;;;;27.70;20.35;;;15.40;99.90;;;;;;1818981;76;21488;-81
2022/03/18 12:33:11;;;;;;;31.35;19.70;;;15.00;99.90;;;;;;1790491;79;21547;-83
2022/03/18 12:35:42;;;;;;;25.62;19.32;;;15.10;99.90;;;;;;1842795;76;21079;-79
2022/03/18 12:38:18;;;;;;;29.05;20.02;;;14.70;99.90;;;;;;1843546;76;21106;-78
2022/03/18 12:40:56;;;;;;;32.70;19.02;;;14.60;99.90;;;;;;1832294;76;21060;-75
2022/03/18 12:43:29;;;;;;;27.35;19.90;;;14.80;99.90;;;;;;1831079;76;21094;-77
2022/03/18 12:45:56;;;;;;;27.98;18.90;;;14.50;99.90;;;;;;1842840;76;21103;-76
2022/03/18 12:48:23;;;;;;;26.55;19.80;;;14.90;99.90;;;;;;1839024;76;21120;-77
2022/03/18 12:53:46;;;;;;;31.48;19.82;;;15.20;99.90;;;;;;1793451;77;21525;-75
2022/03/18 12:56:17;;;;;;;27.87;19.95;;;14.50;99.90;;;;;;1846434;77;21143;-75
2022/03/18 12:58:45;;;;;;;30.57;18.35;;;14.70;99.90;;;;;;1837046;76;21163;-75
2022/03/18 13:01:13;;;;;;;30.17;19.20;;;14.80;99.90;;;;;;1817239;79;21043;-74
2022/03/18 13:03:48;;;;;;;25.90;18.23;;;14.50;99.90;;;;;;1843631;77;21097;-73
2022/03/18 13:06:20;;;;;;;26.85;18.00;;;14.80;99.90;;;;;;1822767;77;21093;-73
2022/03/18 13:08:53;;;;;;;23.30;17.75;;;15.20;99.90;;;;;;1827010;77;21261;-74